• Season
  • Course
  • BIB Lookup
 
West Monroe, LA West Monroe, LA May 21, 2016

Overall

257 Runners
1075.92 Miles Run
188 Hours Running

5K

167 Runners
517.81 Miles Run
98 Hours Running
00:35:31 Avgerage Time
35 Average Age

10K

90 Runners
558.12 Miles Run
90 Hours Running
01:00:16 Avgerage Time
39 Average Age
Overall Place Gender Place Age Place BIB # Name Age Division Time
1 1 1 15171 Desmond Johnson M15-19 00:18:42
2 2 1 15132 Greg White M45-49 00:20:23
3 3 1 15170 Kevin Johnston M50-54 00:21:04
4 4 2 15141 Jac Chandler M15-19 00:21:34
5 5 1 15172 Latroyia Meadows M10-14 00:21:59
6 6 1 15103 David Saleh M40-44 00:22:01
7 7 3 15069 Austen Hunsaker M15-19 00:22:09
8 8 2 15068 Aric Hunsaker M10-14 00:22:10
9 9 1 15051 John Gleason M20-24 00:22:20
10 10 2 15126 Matthew Thornton M20-24 00:22:52
11 11 1 15064 Brian Hilton M35-39 00:22:55
12 12 4 15123 Jacob Thomas M15-19 00:22:55
13 13 2 15192 Brent Creel M35-39 00:23:08
14 14 3 15182 Cary Lincecum M35-39 00:23:17
15 15 1 15185 Ron Marsh M25-29 00:23:30
16 16 4 15147 josh mckaskle M35-39 00:23:58
17 17 5 15180 Jaylon Naron M15-19 00:24:03
18 18 5 15142 Collin Dunn M35-39 00:24:05
19 1 1 15128 surmartha wallace F50-54 00:24:20
20 19 2 15149 Rick Parnell M40-44 00:24:54
21 2 1 15096 Heather Pardon F30-34 00:24:55
22 20 1 15130 Woods Watson M55-59 00:25:20
23 21 1 15168 Tad Jurgens M70-74 00:25:27
24 22 6 15105 Neal Sanderson M35-39 00:25:34
25 23 2 15138 Jonathan Austin M25-29 00:25:34
26 24 2 15070 Don Hunsaker M45-49 00:25:40
27 3 2 15057 Alisa Greene F50-54 00:25:48
28 25 2 15133 Tracy Wilhite M50-54 00:25:55
29 4 1 15140 Laurie Brezin F45-49 00:25:58
30 26 3 15097 Cedric Payne M45-49 00:26:13
31 27 2 15134 John WIlson M55-59 00:26:14
32 28 3 15049 Caden Genis M10-14 00:26:22
33 5 1 15143 Christy Harper F35-39 00:26:31
34 29 1 15191 Josh Creel M30-34 00:26:35
35 6 2 15152 Stephanie Rushing F30-34 00:26:47
36 30 2 15011 Bryan Beeson M30-34 00:26:54
37 7 3 15144 Amy Hedges F30-34 00:26:57
38 31 1 15177 Steve Pawlitschek M65-69 00:26:59
39 8 2 15078 Garrah Leshe F35-39 00:27:04
40 32 7 15075 Kenneth Jones M35-39 00:27:26
41 33 1 15169 Charles Carr M60-64 00:27:31
42 34 3 15023 James Breaux M40-44 00:27:48
43 35 3 15010 Joseph Beard M25-29 00:28:07
44 9 4 15139 Lauren Bond F30-34 00:28:10
45 10 2 15173 Courtney Dean F45-49 00:28:14
46 11 1 15093 rebekah newsom F25-29 00:28:21
47 12 2 15099 RACHEL RAMSEY F25-29 00:28:24
48 13 1 15071 Heidi Hunsaker F40-44 00:28:47
49 36 4 15146 Michael Hildebrand M25-29 00:28:58
50 14 1 15014 Laure Bennett F20-24 00:29:13
51 37 8 15037 Jeffrey Cobb M35-39 00:29:15
52 38 4 15050 Gray Genis M10-14 00:29:15
53 39 3 15174 Gregory Justus M20-24 00:29:32
54 40 3 15024 Jacob Brister M30-34 00:29:37
55 41 2 15166 Brad Borth M65-69 00:29:38
56 15 3 15085 Katelyn Moore F25-29 00:29:44
57 16 2 15002 Kimberly Adams F40-44 00:29:45
58 17 3 15095 Jessica Odom F35-39 00:29:52
59 18 2 15052 Marisa Gleason F20-24 00:29:58
60 19 4 15151 Erin Powell F25-29 00:29:58
61 20 5 15034 Casey Carroll F25-29 00:29:59
62 21 3 15067 Nicole Hotard F40-44 00:30:05
63 42 3 15159 Dewaiine Lenard M65-69 00:30:22
64 22 3 15079 Tammy Lowrey F50-54 00:30:24
65 23 5 15072 Faren Johnson F30-34 00:30:38
66 43 5 15148 whit mckaskle M10-14 00:30:42
67 44 5 15021 Jason Bowlin M25-29 00:30:50
68 24 4 15061 Lisa Heckford F50-54 00:30:51
69 45 6 15114 Mitchell Stephany M10-14 00:31:01
70 46 1 15122 David Terry M0-9 00:31:01
71 25 4 15181 Tracy Oglesby F40-44 00:31:04
72 47 4 15113 David Stephany M45-49 00:31:06
73 26 4 15121 Amanda Terry F35-39 00:31:07
74 27 5 15157 ZZ Wilson F40-44 00:31:17
75 28 3 15083 Kristi May F45-49 00:31:22
76 48 6 15076 Brandon Justus M25-29 00:31:51
77 49 7 15008 Dj Banks M25-29 00:31:54
78 29 6 15043 Brittany Ellis F25-29 00:31:56
79 50 8 15044 Collin Ellis M25-29 00:31:56
80 30 1 15179 Tanner Grace Wilson F15-19 00:32:07
81 51 4 15156 Chad Wilson M40-44 00:32:09
82 31 7 15112 BreAnna Stapleton F25-29 00:32:09
83 32 6 15104 Lacy Sanderson F30-34 00:32:20
84 33 4 15188 Wendy Holland F45-49 00:32:39
85 34 5 15137 Amie Akers F35-39 00:32:45
86 52 9 15163 Nathan Tremaine M25-29 00:32:48
87 35 8 15035 Miranda Chorette F25-29 00:33:19
88 36 5 15015 Lana Benson F50-54 00:33:35
89 37 9 15074 Kiara Johnson F25-29 00:33:57
90 38 6 15102 Melanie Roose F35-39 00:34:43
91 53 5 15033 Steve Calhoun M45-49 00:34:45
92 39 10 15092 Mary Newsom F25-29 00:34:50
93 40 6 15176 Sandy Cascio F50-54 00:34:55
94 54 5 15036 Brian Clark M40-44 00:35:07
95 55 6 18046 Paul Kitchens M45-49 00:35:09
96 41 11 15012 Mallory Beeson F25-29 00:35:40
97 42 6 15063 Meg Heidtman F40-44 00:35:48
98 43 1 15062 Lily Heidtman F10-14 00:35:48
99 44 2 15127 Grecia trejo F15-19 00:36:35
100 45 3 15162 Sarah Willis F20-24 00:36:36
101 46 7 15056 Kelli Green F30-34 00:36:36
102 56 9 15120 Garey Temple M35-39 00:37:01
103 47 8 15186 Alivia Roberts F30-34 00:37:03
104 48 7 15187 Karla Williams F50-54 00:37:17
105 49 1 15042 Carlene Durham F65-69 00:37:20
106 50 5 15006 Cherie Anyan F45-49 00:37:28
107 57 10 15029 Eric Burbank M25-29 00:37:44
108 51 8 18060 Beth Newsom F50-54 00:37:52
109 52 1 18076 Robbie Stokes F55-59 00:37:52
110 53 7 15032 Carlie Bush F35-39 00:37:58
111 54 2 15125 Hazel Thorn F65-69 00:38:19
112 55 12 18070 Rachel Robinson F25-29 00:39:24
113 56 4 15108 Jeanette Slayter F20-24 00:39:25
114 57 13 18051 Kelly Miller F25-29 00:39:25
115 58 2 15020 Jennifer Bostick F55-59 00:39:54
116 59 7 15046 Kerry Ellis F40-44 00:40:02
117 60 2 15080 Caroline Marshall F10-14 00:40:35
118 61 9 15193 Cary Roussel F30-34 00:40:50
119 62 14 15194 Leah Tyler F25-29 00:40:50
120 63 3 15161 Becky Martin F55-59 00:40:57
121 64 3 15026 Anna Grace Brooks F10-14 00:41:10
122 65 10 15116 Kim Sullivan F30-34 00:41:18
123 66 6 15025 Amy Brooks F45-49 00:41:21
124 67 8 15178 Katie Parnell F40-44 00:41:33
125 68 11 15022 Abbey Box F30-34 00:41:36
126 69 12 15053 Katie Golden F30-34 00:41:36
127 70 5 15153 Samantha Ulven F20-24 00:41:39
128 58 3 15119 Michael Tavares M50-54 00:41:43
129 71 15 15019 Courtney Boothe F25-29 00:41:43
130 72 16 15154 Lindsey Vickery F25-29 00:41:44
131 73 4 15109 Allison Smith F10-14 00:41:47
132 59 10 15060 Derrick Harris M35-39 00:41:48
133 74 3 15003 Corrie Albriiton F15-19 00:41:57
134 75 1 15055 Svana Graley F0-9 00:41:57
135 76 6 15077 Victoria Lamb F20-24 00:42:27
136 77 9 15089 Anne Nance F50-54 00:43:37
137 78 17 15145 Ashlie Hennessy F25-29 00:43:47
138 79 7 15016 Kathlene Boggs F45-49 00:44:06
139 80 8 18062 janna patrick F45-49 00:46:38
140 81 4 15184 Darnita Peeler Williams F55-59 00:46:47
141 82 18 15158 Tina Wolfe F25-29 00:46:54
142 60 4 15175 Travis Reuther M30-34 00:47:21
143 83 13 15164 Rachel Brown F30-34 00:47:21
144 84 10 15005 Lisa Antley F50-54 00:48:49
145 61 7 15066 Nicolas Hotard M10-14 00:48:57
146 85 9 15007 Mary Balch F45-49 00:49:06
147 86 9 15098 Carolee Quarles F40-44 00:49:06
148 87 19 15155 Courtney Watson F25-29 00:49:09
149 88 4 15135 brieanna zimek F15-19 00:49:29
150 89 5 15040 Bridget Dawson F55-59 00:50:12
151 90 6 15030 diane bush F55-59 00:50:24
152 91 5 15136 gracie zimek F10-14 00:50:24
153 92 20 15041 Kelsey Dugard F25-29 00:51:04
154 93 5 15190 Slye Hough F15-19 00:51:41
155 62 4 15017 Marion Boggs M50-54 00:53:36
156 94 10 15118 Kim Tavares F45-49 00:53:36
157 95 14 15189 Jenn Brantley F30-34 00:53:53
158 96 11 15183 Stephanie Long F45-49 00:53:53
159 97 7 15101 Lorelei Rodgers F20-24 00:56:43
160 98 8 15081 Emori Mathis F20-24 00:56:43
161 99 11 15045 Gerri Ellis F50-54 00:57:02
162 100 15 15009 Amy Bartlett F30-34 00:57:04
163 101 8 15001 Melissa abernathy F35-39 00:57:21
164 102 16 15165 Kelly Higginbotham F30-34 01:01:34
165 103 9 15039 Belinda Daniels F35-39 01:01:36
166 63 6 15087 Andrew Morse M40-44 01:04:37
167 104 21 15129 Corky Walpole F25-29 01:06:59